Rose City, MI

8:50 AM EDT on March 28, 2015 (GMT -0400)
Rose Township | | Change Station
CLOSE
Current Station
Personal Weather Station
Location: Lupton, MI
Elevation: 922 ft
Nearby Weather Stations

Elev 922 ft 44.43 °N, 84.01 °W | Updated 3 seconds ago

Clear
Clear
14.7 °F
Feels Like 15 °F
N
0.0
Wind Variable Wind from West
Gusts 0.0 mph

Today
High -- | Low -- °F
--% Chance of Precip.
Yesterday
High -- | Low -- °F
Precip. -- in
7:25 AM 7:58 PM
Waxing Gibbous, 62% visible
Pressure 30.33 in
Visibility 10.0 miles
Clouds Clear
Windchill 15 °F
Dew Point 10 °F
Humidity 79%
Rainfall 0.00 in
Snow Depth Not available.
UV 0 out of 12
Pollen 1.00 out of 12
Air Quality Not available.
Flu Activity Not available.
METAR KHTL 281153Z AUTO 29003KT 10SM CLR M14/M17 A3025 RMK AO2 SLP269 I6000 T11441172 11122 21161 53020

More Conditions Fewer Conditions

Pressure 30.33 in
Visibility 10.0 miles
Clouds Clear
Windchill 15 °F
Dew Point 10 °F
Humidity 79%
Rainfall 0.00 in
Snow Depth Not available.
UV 0 out of 12
Pollen 1.00 out of 12
Air Quality Not available.
Flu Activity Not available.
METAR KHTL 281153Z AUTO 29003KT 10SM CLR M14/M17 A3025 RMK AO2 SLP269 I6000 T11441172 11122 21161 53020

More Conditions Fewer Conditions

Nowcast | as of 8:00 am EDT on March 28, 2015

At 9 am...clear. Temperature 13. North winds 6 mph. At 11 am...clear. Temperature 20. North winds 6 mph. At 1 PM...clear. Temperature 28. Northwest winds 5 mph. At 3 PM...clear. Temperature 33. Northwest winds 5 mph.

×

10-Day Weather Forecast

Almanac

Astronomy

Mar. 28, 2015 Rise Set
Actual Time
Civil Twilight
Nautical Twilight
Astronomical Twilight
Moon
Length of Visible Light
Length of Day
Tomorrow will be .
, % of the Moon is Illuminated

Today's Extremes

State Highs State Lows

Community

WunderPhotos

Upload Photos

1,808,966 photos uploaded!

WunderBlogs® & News

Nearby

Air Quality

  Air Quality AQ Index Pollutant
Not available.

Snow Depth

Station Depth Elevation

Earthquake Activity

City Distance Mag. Time & Date
Minimum magnitude displayed is 2.5.

Coastal Water Temperatures

Place Temperature

Stations

Nearby Weather Stations

Station Location Temp. Windchill Dew Point Humidity Wind Precip. Elev Updated Type